Time;durP1;ratioP1;P1;durP2;ratioP2;P2;SDS_P1;SDS_P2;PMS_P1;PMS_P2;Temp;Humidity;BMP_temperature;BMP_pressure;BME280_temperature;BME280_humidity;BME280_pressure;Samples;Min_cycle;Max_cycle;Signal;HPM_P1;HPM_P2
2021/08/17 05:03:43;;;;;;;;;;;;;;;27.68;48.80;99792.96;1838337;77;20175;-69
2021/08/17 05:06:11;;;;;;;;;;;;;;;27.82;48.39;99786.62;1794833;79;20168;-69
2021/08/17 05:08:39;;;;;;;;;;;;;;;28.04;47.76;99790.43;1774978;80;21147;-69
2021/08/17 05:11:07;;;;;;;;;;;;;;;28.26;46.88;99785.23;1795560;79;20082;-66
2021/08/17 05:13:36;;;;;;;;;;;;;;;28.43;46.85;99789.11;1796460;80;20122;-67
2021/08/17 05:16:04;;;;;;;;;;;;;;;28.65;46.20;99787.03;1796293;78;20474;-67
2021/08/17 05:18:33;;;;;;;;;;;;;;;28.92;45.79;99782.45;1794291;79;20499;-68
2021/08/17 05:21:01;;;;;;;;;;;;;;;29.16;44.91;99784.96;1780213;78;20143;-66
2021/08/17 05:23:30;;;;;;;;;;;;;;;29.34;44.55;99782.90;1764331;80;20072;-66
2021/08/17 05:25:56;;;;;;;;;;;;;;;29.52;43.97;99778.52;1765334;78;20202;-69
2021/08/17 05:28:23;;;;;;;;;;;;;;;29.70;43.30;99783.13;1780354;78;20399;-65
2021/08/17 05:30:52;;;;;;;;;;;;;;;29.90;43.17;99784.88;1787139;78;20090;-67
2021/08/17 05:33:19;;;;;;;;;;;;;;;30.11;42.90;99783.17;1764951;81;22336;-67
2021/08/17 05:35:47;;;;;;;;;;;;;;;30.31;42.47;99777.12;1764896;81;20119;-65
2021/08/17 05:38:29;;;;;;;;;;;;;;;30.57;42.31;99784.66;1765000;81;20132;-68
2021/08/17 05:40:55;;;;;;;;;;;;;;;30.78;41.46;99785.59;1790702;79;20402;-65
2021/08/17 05:43:22;;;;;;;;;;;;;;;30.91;41.19;99783.25;1796340;80;20148;-67
2021/08/17 05:45:49;;;;;;;;;;;;;;;31.04;40.88;99786.61;1795850;79;22069;-66
2021/08/17 05:48:15;;;;;;;;;;;;;;;31.18;40.63;99785.97;1795981;78;20077;-66
2021/08/17 05:50:44;;;;;;;;;;;;;;;31.31;40.40;99779.58;1796255;80;20118;-65
2021/08/17 05:53:12;;;;;;;;;;;;;;;31.37;40.39;99780.84;1796111;80;20156;-66
2021/08/17 05:55:40;;;;;;;;;;;;;;;31.47;40.21;99788.37;1782544;78;20109;-65
2021/08/17 05:58:09;;;;;;;;;;;;;;;31.61;39.99;99784.95;1764815;81;20108;-66
2021/08/17 06:00:38;;;;;;;;;;;;;;;31.75;39.84;99778.36;1764666;81;20116;-66
2021/08/17 06:03:06;;;;;;;;;;;;;;;31.94;39.47;99780.47;1769558;78;20499;-65
2021/08/17 06:05:36;;;;;;;;;;;;;;;32.10;39.02;99777.91;1778915;80;20280;-65
2021/08/17 06:08:03;;;;;;;;;;;;;;;32.22;38.88;99783.86;1785145;80;20078;-66
2021/08/17 06:10:30;;;;;;;;;;;;;;;32.28;38.38;99783.76;1777831;80;21101;-68
2021/08/17 06:12:59;;;;;;;;;;;;;;;32.38;38.37;99785.88;1756684;80;20151;-68
2021/08/17 06:15:27;;;;;;;;;;;;;;;32.49;38.35;99785.03;1757610;79;20390;-68
2021/08/17 06:17:54;;;;;;;;;;;;;;;32.69;37.72;99782.80;1753965;82;20132;-66
2021/08/17 06:20:23;;;;;;;;;;;;;;;32.74;37.37;99780.75;1775208;79;20176;-69
2021/08/17 06:22:51;;;;;;;;;;;;;;;32.78;37.50;99777.91;1753205;81;21864;-69
2021/08/17 06:25:19;;;;;;;;;;;;;;;32.88;37.32;99787.53;1753919;82;20154;-71
2021/08/17 06:27:47;;;;;;;;;;;;;;;32.94;36.80;99785.24;1781656;80;20101;-66
2021/08/17 06:30:16;;;;;;;;;;;;;;;32.99;36.70;99779.13;1754483;81;20168;-70
2021/08/17 06:32:44;;;;;;;;;;;;;;;33.09;37.04;99789.61;1775901;81;20080;-68
2021/08/17 06:35:12;;;;;;;;;;;;;;;33.30;36.51;99785.98;1773982;79;21580;-68
2021/08/17 06:37:39;;;;;;;;;;;;;;;33.50;36.25;99784.22;1754078;82;20081;-69
2021/08/17 06:40:07;;;;;;;;;;;;;;;33.62;35.80;99784.95;1761263;80;20161;-68
2021/08/17 06:42:39;;;;;;;;;;;;;;;33.74;35.47;99787.08;1779310;79;20469;-67
2021/08/17 06:45:09;;;;;;;;;;;;;;;33.78;35.40;99791.75;1752742;82;20097;-65
2021/08/17 06:47:47;;;;;;;;;;;;;;;33.82;35.57;99797.52;1765138;80;21031;-66
2021/08/17 06:50:17;;;;;;;;;;;;;;;33.87;35.31;99787.34;1765325;80;20120;-66
2021/08/17 06:52:44;;;;;;;;;;;;;;;33.98;35.16;99794.02;1758965;79;20133;-74
2021/08/17 06:55:13;;;;;;;;;;;;;;;34.06;34.79;99793.59;1767181;80;20118;-67
2021/08/17 06:57:42;;;;;;;;;;;;;;;34.07;34.89;99787.13;1784811;80;20079;-68
2021/08/17 07:00:10;;;;;;;;;;;;;;;34.13;34.35;99792.08;1784638;80;21980;-68
2021/08/17 07:02:38;;;;;;;;;;;;;;;34.17;34.19;99789.17;1787289;80;20110;-72
2021/08/17 07:05:07;;;;;;;;;;;;;;;34.21;34.38;99788.97;1789564;79;20194;-68
2021/08/17 07:07:39;;;;;;;;;;;;;;;34.30;34.28;99787.53;1787804;79;20164;-69
2021/08/17 07:10:09;;;;;;;;;;;;;;;34.41;34.06;99786.59;1800959;79;20098;-69
2021/08/17 07:12:39;;;;;;;;;;;;;;;34.49;33.62;99787.24;1797205;79;21146;-74
2021/08/17 07:15:10;;;;;;;;;;;;;;;34.49;33.28;99790.77;1797987;79;20470;-73
2021/08/17 07:17:39;;;;;;;;;;;;;;;34.42;33.40;99789.59;1775771;80;20488;-75
2021/08/17 07:20:08;;;;;;;;;;;;;;;34.38;33.68;99784.41;1768057;79;20116;-70
2021/08/17 07:22:41;;;;;;;;;;;;;;;34.36;33.38;99786.55;1793706;79;20148;-68
2021/08/17 07:25:13;;;;;;;;;;;;;;;34.35;33.27;99778.15;1791435;79;20464;-69
2021/08/17 07:27:40;;;;;;;;;;;;;;;34.36;33.53;99778.44;1793686;79;20619;-67
2021/08/17 07:30:12;;;;;;;;;;;;;;;34.45;33.30;99777.45;1797158;79;20388;-71
2021/08/17 07:32:54;;;;;;;;;;;;;;;34.54;32.85;99768.39;1802905;79;20412;-71
2021/08/17 07:35:30;;;;;;;;;;;;;;;34.62;32.96;99767.44;1789702;80;20153;-68
2021/08/17 07:38:01;;;;;;;;;;;;;;;34.57;32.54;99765.19;1785495;80;21110;-74
2021/08/17 07:40:32;;;;;;;;;;;;;;;34.59;32.77;99760.35;1788879;80;20133;-75
2021/08/17 07:43:05;;;;;;;;;;;;;;;34.68;32.44;99762.91;1789535;80;20086;-70
2021/08/17 07:45:38;;;;;;;;;;;;;;;34.76;32.28;99770.60;1789129;80;20523;-69
2021/08/17 07:48:13;;;;;;;;;;;;;;;34.85;31.98;99770.99;1795096;80;20499;-73
2021/08/17 07:50:45;;;;;;;;;;;;;;;34.90;31.73;99761.05;1791749;80;20413;-71
2021/08/17 07:53:30;;;;;;;;;;;;;;;34.92;30.92;99762.98;1773273;80;20109;-69
2021/08/17 07:56:00;;;;;;;;;;;;;;;34.84;31.53;99766.65;1796027;78;20118;-72
2021/08/17 07:58:33;;;;;;;;;;;;;;;34.85;31.48;99769.64;1794470;79;20094;-68
2021/08/17 08:01:15;;;;;;;;;;;;;;;34.80;31.07;99763.63;1794215;80;20086;-75
2021/08/17 08:07:08;;;;;;;;;;;;;;;34.59;31.37;99765.77;1753201;82;20115;-78
2021/08/17 08:09:55;;;;;;;;;;;;;;;34.58;31.26;99764.94;1778365;80;20127;-71
2021/08/17 08:12:25;;;;;;;;;;;;;;;34.55;31.16;99757.86;1778521;79;20464;-66
2021/08/17 08:15:03;;;;;;;;;;;;;;;34.51;31.36;99764.83;1779846;80;20082;-71
2021/08/17 08:17:38;;;;;;;;;;;;;;;34.47;31.43;99756.39;1770671;80;20484;-71
2021/08/17 08:20:06;;;;;;;;;;;;;;;34.51;31.46;99752.66;1782514;80;20118;-68
2021/08/17 08:22:34;;;;;;;;;;;;;;;34.56;31.46;99754.09;1779208;80;20095;-69
2021/08/17 08:25:04;;;;;;;;;;;;;;;34.66;31.02;99758.29;1777919;80;20110;-68
2021/08/17 08:27:31;;;;;;;;;;;;;;;34.68;31.28;99759.68;1777838;80;20122;-70
2021/08/17 08:30:00;;;;;;;;;;;;;;;34.68;31.27;99754.27;1777945;80;20082;-69
2021/08/17 08:32:28;;;;;;;;;;;;;;;34.73;31.15;99758.39;1778014;80;20098;-70
2021/08/17 08:34:56;;;;;;;;;;;;;;;34.73;31.21;99754.88;1778019;80;20389;-70
2021/08/17 08:37:29;;;;;;;;;;;;;;;34.69;30.71;99755.09;1778067;80;20106;-67
2021/08/17 08:40:00;;;;;;;;;;;;;;;34.59;30.92;99750.89;1778485;80;20082;-70
2021/08/17 08:42:30;;;;;;;;;;;;;;;34.55;30.82;99749.75;1781589;79;20422;-70
2021/08/17 08:44:57;;;;;;;;;;;;;;;34.45;30.97;99740.42;1774317;79;20196;-66
2021/08/17 08:47:25;;;;;;;;;;;;;;;34.39;30.97;99743.33;1767266;80;20399;-70
2021/08/17 08:49:56;;;;;;;;;;;;;;;34.25;31.17;99745.52;1753637;81;20418;-67
2021/08/17 08:52:27;;;;;;;;;;;;;;;34.12;31.54;99739.09;1770631;80;20176;-74
2021/08/17 08:54:54;;;;;;;;;;;;;;;34.04;32.01;99747.61;1778416;80;21161;-68
2021/08/17 08:57:30;;;;;;;;;;;;;;;34.02;31.69;99738.40;1778371;80;20110;-71
2021/08/17 08:59:59;;;;;;;;;;;;;;;33.99;31.79;99733.48;1777359;80;20111;-72
2021/08/17 09:02:33;;;;;;;;;;;;;;;33.91;32.05;99736.63;1778889;80;20130;-71
2021/08/17 09:05:03;;;;;;;;;;;;;;;33.82;32.19;99735.39;1789939;78;20094;-67
2021/08/17 09:07:46;;;;;;;;;;;;;;;33.76;32.55;99723.65;1809570;78;21100;-68
2021/08/17 09:10:22;;;;;;;;;;;;;;;33.72;32.71;99752.73;1810288;78;20281;-66
2021/08/17 09:12:53;;;;;;;;;;;;;;;33.65;32.67;99732.63;1801096;78;20129;-68
2021/08/17 09:15:33;;;;;;;;;;;;;;;33.53;32.92;99737.30;1807075;78;20132;-66
2021/08/17 09:18:02;;;;;;;;;;;;;;;33.45;33.04;99737.70;1802457;78;20109;-71
2021/08/17 09:20:43;;;;;;;;;;;;;;;33.36;33.14;99727.00;1775150;80;21062;-68
2021/08/17 09:23:30;;;;;;;;;;;;;;;33.28;33.66;99732.25;1798524;80;20121;-70
2021/08/17 09:26:00;;;;;;;;;;;;;;;33.31;33.60;99729.06;1798416;80;20118;-67
2021/08/17 09:28:36;;;;;;;;;;;;;;;33.28;33.67;99736.30;1799119;80;20121;-71
2021/08/17 09:31:05;;;;;;;;;;;;;;;33.24;33.39;99739.68;1798470;79;20094;-67
2021/08/17 09:33:37;;;;;;;;;;;;;;;33.16;33.45;99737.39;1798154;79;20161;-70
2021/08/17 09:36:08;;;;;;;;;;;;;;;33.02;33.52;99736.31;1779477;79;20085;-67
2021/08/17 09:38:37;;;;;;;;;;;;;;;32.93;34.35;99734.23;1798093;79;20455;-69
2021/08/17 09:41:28;;;;;;;;;;;;;;;32.92;34.31;99733.41;1800226;79;20475;-71
2021/08/17 09:44:08;;;;;;;;;;;;;;;32.93;34.19;99729.66;1795904;80;20157;-70
2021/08/17 09:46:37;;;;;;;;;;;;;;;32.94;33.84;99730.47;1748334;80;21526;-70
2021/08/17 09:49:27;;;;;;;;;;;;;;;32.90;33.72;99723.91;1767363;80;20175;-71
2021/08/17 09:51:55;;;;;;;;;;;;;;;32.85;34.08;99717.89;1767028;81;20096;-72
2021/08/17 09:54:23;;;;;;;;;;;;;;;32.80;34.24;99719.95;1767423;81;20108;-71
2021/08/17 09:57:00;;;;;;;;;;;;;;;32.75;34.00;99722.56;1766895;81;20084;-69
2021/08/17 09:59:29;;;;;;;;;;;;;;;32.72;34.45;99714.92;1767215;81;21105;-69
2021/08/17 10:02:01;;;;;;;;;;;;;;;32.69;34.17;99726.18;1791727;80;20114;-73
2021/08/17 10:04:29;;;;;;;;;;;;;;;32.58;33.79;99709.48;1794986;80;20082;-69
2021/08/17 10:06:59;;;;;;;;;;;;;;;32.48;34.44;99715.48;1791349;78;20125;-72
2021/08/17 10:09:26;;;;;;;;;;;;;;;32.42;34.41;99713.72;1786453;80;20118;-72
2021/08/17 10:11:55;;;;;;;;;;;;;;;32.42;34.90;99711.03;1789520;79;21186;-72
2021/08/17 10:14:24;;;;;;;;;;;;;;;32.40;35.06;99711.80;1788862;79;20107;-72
2021/08/17 10:16:52;;;;;;;;;;;;;;;32.40;34.98;99707.75;1756247;81;20106;-71
2021/08/17 10:19:25;;;;;;;;;;;;;;;32.39;34.34;99711.50;1756343;81;20413;-73
2021/08/17 10:21:57;;;;;;;;;;;;;;;32.33;34.27;99716.51;1756602;81;20437;-74
2021/08/17 10:24:31;;;;;;;;;;;;;;;32.31;34.39;99700.28;1729264;81;22080;-74
2021/08/17 10:27:18;;;;;;;;;;;;;;;32.29;34.49;99705.91;1756401;81;20099;-76
2021/08/17 10:29:57;;;;;;;;;;;;;;;32.25;34.50;99707.95;1756658;81;20150;-73
2021/08/17 10:32:55;;;;;;;;;;;;;;;32.22;34.74;99711.12;1756293;81;20082;-72
2021/08/17 10:35:35;;;;;;;;;;;;;;;32.17;35.03;99722.56;1756515;81;20111;-65
2021/08/17 10:38:13;;;;;;;;;;;;;;;32.15;34.68;99716.06;1752820;81;20714;-67
2021/08/17 10:40:53;;;;;;;;;;;;;;;32.17;34.91;99714.48;1756416;81;20122;-72
2021/08/17 10:43:36;;;;;;;;;;;;;;;32.22;34.92;99711.12;1756029;81;20119;-72
2021/08/17 10:46:05;;;;;;;;;;;;;;;32.29;34.92;99712.64;1755369;81;20176;-72
2021/08/17 10:48:59;;;;;;;;;;;;;;;32.34;34.82;99705.20;1755977;81;20094;-72
2021/08/17 10:51:25;;;;;;;;;;;;;;;32.37;33.88;99707.43;1755373;81;21161;-69
2021/08/17 10:53:53;;;;;;;;;;;;;;;32.31;34.00;99704.33;1757349;81;20099;-72
2021/08/17 10:56:22;;;;;;;;;;;;;;;32.25;34.12;99702.04;1776159;80;20092;-69
2021/08/17 10:58:56;;;;;;;;;;;;;;;32.21;34.18;99704.88;1780868;80;20129;-66
2021/08/17 11:01:46;;;;;;;;;;;;;;;32.20;33.95;99703.23;1794959;79;20110;-69
2021/08/17 11:04:21;;;;;;;;;;;;;;;32.16;33.85;99698.84;1789994;79;22020;-72
2021/08/17 11:06:57;;;;;;;;;;;;;;;32.13;33.88;99689.88;1759985;80;20399;-76
2021/08/17 11:09:30;;;;;;;;;;;;;;;32.12;34.15;99690.94;1787364;79;20188;-67
2021/08/17 11:12:05;;;;;;;;;;;;;;;32.13;34.39;99692.58;1784707;79;20135;-71
2021/08/17 11:14:41;;;;;;;;;;;;;;;32.16;34.02;99695.33;1777632;79;20457;-71
2021/08/17 11:17:15;;;;;;;;;;;;;;;32.16;34.06;99689.94;1751458;81;21310;-69
2021/08/17 11:19:46;;;;;;;;;;;;;;;32.16;33.98;99691.28;1740441;82;20120;-71
2021/08/17 11:22:23;;;;;;;;;;;;;;;32.14;33.88;99684.79;1752985;82;20135;-72
2021/08/17 11:24:53;;;;;;;;;;;;;;;32.13;33.74;99679.63;1789416;79;20237;-70
2021/08/17 11:27:25;;;;;;;;;;;;;;;32.12;34.17;99680.16;1790175;79;20090;-72
2021/08/17 11:29:58;;;;;;;;;;;;;;;32.14;34.12;99681.27;1771707;79;21137;-74
2021/08/17 11:32:33;;;;;;;;;;;;;;;32.16;33.88;99683.20;1791296;79;20125;-69
2021/08/17 11:35:08;;;;;;;;;;;;;;;32.17;33.98;99679.45;1787971;79;20390;-70
2021/08/17 11:37:42;;;;;;;;;;;;;;;32.17;33.81;99688.89;1776795;79;20125;-69
2021/08/17 11:40:15;;;;;;;;;;;;;;;32.19;34.37;99693.52;1794769;79;20086;-73
2021/08/17 11:42:55;;;;;;;;;;;;;;;32.19;34.04;99692.17;1784606;80;21112;-73
2021/08/17 11:45:28;;;;;;;;;;;;;;;32.16;33.81;99684.55;1784841;80;20110;-71
2021/08/17 11:48:00;;;;;;;;;;;;;;;32.12;33.87;99677.47;1774295;80;20099;-73
2021/08/17 11:50:29;;;;;;;;;;;;;;;32.13;33.94;99675.59;1784733;80;20110;-70
2021/08/17 11:52:59;;;;;;;;;;;;;;;32.13;34.34;99676.41;1784566;80;20416;-69
2021/08/17 11:55:27;;;;;;;;;;;;;;;32.16;34.62;99669.73;1784791;80;21109;-68
2021/08/17 11:57:58;;;;;;;;;;;;;;;32.20;33.64;99662.83;1784671;80;20134;-69
2021/08/17 12:00:28;;;;;;;;;;;;;;;32.21;33.73;99659.60;1784935;80;20098;-69
2021/08/17 12:02:57;;;;;;;;;;;;;;;32.22;33.31;99654.54;1784971;80;20122;-72
2021/08/17 12:05:30;;;;;;;;;;;;;;;32.24;32.83;99657.29;1784331;79;20361;-67
2021/08/17 12:07:59;;;;;;;;;;;;;;;32.24;33.28;99657.29;1753718;82;21434;-71
2021/08/17 12:10:35;;;;;;;;;;;;;;;32.26;32.99;99657.87;1742516;82;20097;-69
2021/08/17 12:13:11;;;;;;;;;;;;;;;32.23;33.10;99655.66;1753995;81;20166;-70
2021/08/17 12:15:49;;;;;;;;;;;;;;;32.22;33.04;99655.36;1758243;79;20146;-68
2021/08/17 12:18:24;;;;;;;;;;;;;;;32.21;32.76;99661.77;1787157;79;20422;-70
2021/08/17 12:20:56;;;;;;;;;;;;;;;32.20;32.80;99660.13;1801546;79;21133;-68
2021/08/17 12:23:35;;;;;;;;;;;;;;;32.19;33.00;99661.19;1809024;79;20086;-68
2021/08/17 12:26:14;;;;;;;;;;;;;;;32.19;33.02;99657.14;1758780;79;20092;-71
2021/08/17 12:28:44;;;;;;;;;;;;;;;32.19;32.79;99653.10;1784928;80;20110;-71
2021/08/17 12:31:23;;;;;;;;;;;;;;;32.16;32.98;99657.09;1784185;79;20118;-74
2021/08/17 12:34:03;;;;;;;;;;;;;;;32.15;33.16;99657.32;1781838;80;20909;-71
2021/08/17 12:36:48;;;;;;;;;;;;;;;32.15;32.98;99658.14;1784589;80;20078;-73
2021/08/17 12:39:23;;;;;;;;;;;;;;;32.15;33.11;99648.71;1776829;79;20407;-71
2021/08/17 12:41:59;;;;;;;;;;;;;;;32.15;33.09;99647.89;1775331;80;20378;-70
2021/08/17 12:44:33;;;;;;;;;;;;;;;32.14;33.02;99649.77;1754950;80;20430;-69
2021/08/17 12:47:17;;;;;;;;;;;;;;;32.12;33.26;99650.53;1743578;82;20913;-69
2021/08/17 12:50:07;;;;;;;;;;;;;;;32.13;33.29;99664.81;1753746;81;20098;-69
2021/08/17 12:52:41;;;;;;;;;;;;;;;32.11;32.72;99652.92;1753919;82;20093;-69
2021/08/17 12:55:12;;;;;;;;;;;;;;;32.11;32.92;99658.84;1753880;82;20382;-69
2021/08/17 12:57:41;;;;;;;;;;;;;;;32.10;32.99;99654.52;1754253;82;20133;-71
2021/08/17 13:00:12;;;;;;;;;;;;;;;32.09;33.07;99649.65;1753774;82;21115;-69
2021/08/17 13:02:41;;;;;;;;;;;;;;;32.08;32.81;99648.53;1742073;80;20175;-72
2021/08/17 13:05:12;;;;;;;;;;;;;;;32.09;33.14;99648.83;1766227;80;20100;-71
2021/08/17 13:07:44;;;;;;;;;;;;;;;32.06;32.86;99640.69;1778428;80;20147;-72
2021/08/17 13:10:14;;;;;;;;;;;;;;;32.07;33.06;99646.38;1788753;80;20476;-71
2021/08/17 13:15:39;;;;;;;;;;;;;;;32.05;32.68;99643.09;1746911;82;20157;-69
2021/08/17 13:18:09;;;;;;;;;;;;;;;31.99;32.99;99632.47;1748678;82;20122;-71
2021/08/17 13:20:39;;;;;;;;;;;;;;;31.98;32.68;99633.52;1717443;83;20420;-70
2021/08/17 13:23:05;;;;;;;;;;;;;;;31.96;32.49;99638.32;1731244;81;20484;-70
2021/08/17 13:25:34;;;;;;;;;;;;;;;31.94;33.14;99625.61;1739466;82;20117;-71
2021/08/17 13:28:04;;;;;;;;;;;;;;;31.94;33.41;99628.30;1749715;82;20085;-72
2021/08/17 13:30:32;;;;;;;;;;;;;;;31.95;33.04;99624.56;1749732;82;20085;-72
2021/08/17 13:33:04;;;;;;;;;;;;;;;31.95;32.63;99624.56;1749584;80;20474;-72
2021/08/17 13:35:37;;;;;;;;;;;;;;;31.91;32.74;99625.55;1749623;82;20105;-71
2021/08/17 13:38:04;;;;;;;;;;;;;;;31.90;33.42;99625.79;1749004;82;21269;-70
2021/08/17 13:40:30;;;;;;;;;;;;;;;31.90;33.58;99619.87;1748499;82;20550;-70
2021/08/17 13:43:00;;;;;;;;;;;;;;;31.90;33.42;99615.02;1748842;82;20121;-71
2021/08/17 13:45:30;;;;;;;;;;;;;;;31.91;33.21;99617.48;1721835;82;20149;-70
2021/08/17 13:48:02;;;;;;;;;;;;;;;31.91;32.87;99614.78;1749427;82;20138;-70
2021/08/17 13:50:33;;;;;;;;;;;;;;;31.90;33.01;99609.10;1741201;81;21958;-71
2021/08/17 13:53:02;;;;;;;;;;;;;;;31.91;33.11;99615.31;1717651;82;20158;-71
2021/08/17 13:55:35;;;;;;;;;;;;;;;31.89;33.07;99605.30;1742415;82;20198;-72
2021/08/17 13:58:08;;;;;;;;;;;;;;;31.88;33.14;99609.05;1743289;82;20402;-69
2021/08/17 14:00:36;;;;;;;;;;;;;;;31.86;33.22;99605.24;1743752;81;20126;-72
2021/08/17 14:03:05;;;;;;;;;;;;;;;31.87;32.74;99602.02;1711856;82;21782;-70
2021/08/17 14:05:34;;;;;;;;;;;;;;;31.83;32.98;99597.10;1740276;82;20296;-76
2021/08/17 14:08:02;;;;;;;;;;;;;;;31.83;33.02;99595.75;1745233;81;20117;-76
2021/08/17 14:10:31;;;;;;;;;;;;;;;31.81;33.13;99596.52;1749461;82;20161;-73
2021/08/17 14:12:59;;;;;;;;;;;;;;;31.79;32.78;99594.59;1749708;82;20177;-72
2021/08/17 14:15:29;;;;;;;;;;;;;;;31.76;32.94;99593.70;1746026;82;20117;-73
2021/08/17 14:17:57;;;;;;;;;;;;;;;31.73;33.22;99588.79;1744467;82;20188;-68
2021/08/17 14:20:30;;;;;;;;;;;;;;;31.71;32.94;99593.59;1744157;82;20177;-68
2021/08/17 14:23:04;;;;;;;;;;;;;;;31.69;33.21;99591.66;1744038;82;20161;-70
2021/08/17 14:25:33;;;;;;;;;;;;;;;31.68;33.71;99587.84;1744772;82;20130;-66
2021/08/17 14:28:01;;;;;;;;;;;;;;;31.69;33.67;99588.14;1746020;82;21080;-68
